• Join FlightAware (Why Join?)
  • Login
  • US Flag 
06:11PM EST


 

Airport Tracker/Info


-or-


 

Live Flight TrackerFlight Track Log ✈ G52618 ✈ 07-Aug-2013 ✈ ZGSD / ZUH - ZGWZ / WUZ

Flight Track Log - Related Links

Times and Time Zones

All times are in EDT time to prevent confusion due to time zone crossing. See the G52618 flight status page for this flight to view local times or setup timezone preferences in your user account.

Time Position Orientation Groundspeed Altitude Reporting Facility
EDT Latitude Longitude Course Direction KTS MPH feet Rate Location/Type
11:11PM 22.4087 112.7949 307° West  Level Estimated
11:12PM 22.4451 112.7418 307° West  Level Estimated
11:13PM 22.4816 112.6888 307° West  Level Estimated
11:14PM 22.5180 112.6357 307° West  Level Estimated
11:15PM 22.5544 112.5826 307° West  Level Estimated
11:16PM 22.5907 112.5294 307° West  Level Estimated
11:17PM 22.6271 112.4763 307° West  Level Estimated
11:18PM 22.6634 112.4231 307° West  Level Estimated
11:19PM 22.6998 112.3698 306° West  Level Estimated
11:20PM 22.7361 112.3166 306° West  Level Estimated
11:21PM 22.7724 112.2633 306° West  Level Estimated
11:22PM 22.8086 112.2100 306° West  Level Estimated
11:23PM 22.8449 112.1566 306° West  Level Estimated
11:24PM 22.8811 112.1033 306° West  Level Estimated
11:25PM 22.9173 112.0499 306° West  Level Estimated
11:26PM 22.9535 111.9964 306° West  Level Estimated
11:27PM 22.9897 111.9430 306° West  Level Estimated
11:28PM 23.0259 111.8895 306° West  Level Estimated
11:29PM 23.0620 111.8360 306° West  Level Estimated
11:30PM 23.0981 111.7825 306° West  Level Estimated
11:31PM 23.1343 111.7289 306° West  Level Estimated
11:32PM 23.1703 111.6753 306° West  Level Estimated
11:33PM 23.2064 111.6217 306° West  Level Estimated
11:34PM 23.2425 111.5680 306° West  Level Estimated
11:35PM 23.2785 111.5143 306° West  Level Estimated
11:36PM 23.3145 111.4606 306° West  Level Estimated
11:37PM 23.3505 111.4069 306° West  Level Estimated
11:38PM 23.3865 111.3531 306° West  Level Estimated
11:39PM 23.4225 111.2993 306° West  Level Estimated
11:40PM 23.4567 111.2481 306° West  Level Estimated
11:41PM 23.4567 111.2481 231° Southwest  Level Estimated
11:42PM 23.4567 111.2481 231° Southwest  Level Estimated
11:43PM 23.4567 111.2481 231° Southwest  Level Estimated
11:44PM 23.4567 111.2481 231° Southwest  Level Estimated
11:45PM 23.4567 111.2481 231° Southwest  Level Estimated
11:46PM 23.4567 111.2481 231° Southwest  Level Estimated
11:47PM 23.4567 111.2481 231° Southwest  Level Estimated
11:48PM 23.4567 111.2481 231° Southwest  Level Estimated
11:49PM 23.4567 111.2481 231° Southwest  Level Estimated
11:50PM 23.4567 111.2481 231° Southwest  Level Estimated
11:51PM 23.4567 111.2481 231° Southwest  Level Estimated
11:52PM 23.4567 111.2481 231° Southwest  Level Estimated
11:53PM 23.4567 111.2481 231° Southwest  Level Estimated
11:54PM 23.4567 111.2481 231° Southwest  Level Estimated